createdAt,value
2019-04-06T00:01:51.318Z,11.40
2019-04-06T00:04:19.406Z,11.53
2019-04-06T00:06:47.445Z,12.60
2019-04-06T00:09:15.564Z,13.57
2019-04-06T00:11:43.995Z,13.87
2019-04-06T00:14:12.030Z,14.40
2019-04-06T00:16:40.320Z,15.33
2019-04-06T00:19:08.591Z,14.80
2019-04-06T00:21:36.631Z,13.73
2019-04-06T00:24:04.742Z,14.97
2019-04-06T00:26:32.760Z,14.23
2019-04-06T00:29:00.724Z,14.23
2019-04-06T00:31:46.872Z,13.63
2019-04-06T00:34:14.876Z,14.93
2019-04-06T00:36:43.107Z,15.43
2019-04-06T00:39:11.129Z,14.93
2019-04-06T00:41:38.928Z,14.57
2019-04-06T00:44:06.963Z,15.33
2019-04-06T00:46:35.110Z,14.07
2019-04-06T00:49:03.125Z,14.90
2019-04-06T00:51:30.963Z,16.07
2019-04-06T00:53:58.886Z,15.30
2019-04-06T00:56:26.865Z,16.57
2019-04-06T00:58:54.879Z,15.97
2019-04-06T01:01:22.772Z,15.93
2019-04-06T01:03:51.133Z,15.37
2019-04-06T01:06:19.284Z,13.77
2019-04-06T01:08:47.317Z,13.97
2019-04-06T01:11:15.436Z,15.37
2019-04-06T01:13:43.521Z,13.50
2019-04-06T01:16:11.558Z,12.83
2019-04-06T01:18:39.616Z,12.77
2019-04-06T01:21:08.061Z,12.27
2019-04-06T01:23:36.075Z,11.57
2019-04-06T01:26:07.657Z,10.90
2019-04-06T01:28:33.961Z,10.33
2019-04-06T01:31:01.942Z,12.47
2019-04-06T01:33:30.081Z,12.03
2019-04-06T01:35:58.179Z,11.30
2019-04-06T01:38:26.658Z,11.20
2019-04-06T01:40:54.642Z,12.73
2019-04-06T01:43:22.856Z,11.67
2019-04-06T01:45:50.865Z,13.03
2019-04-06T01:48:18.908Z,12.33
2019-04-06T01:50:48.418Z,12.70
2019-04-06T01:53:16.740Z,15.40
2019-04-06T01:55:44.626Z,15.80
2019-04-06T01:58:12.754Z,15.67
2019-04-06T02:00:45.353Z,15.90
2019-04-06T02:03:13.343Z,16.97
2019-04-06T02:05:41.337Z,16.73
2019-04-06T02:08:09.464Z,15.20
2019-04-06T02:10:37.565Z,16.20
2019-04-06T02:13:05.756Z,15.90
2019-04-06T02:15:33.782Z,17.50
2019-04-06T02:18:01.832Z,17.60
2019-04-06T02:20:29.807Z,17.97
2019-04-06T02:22:57.854Z,18.23
2019-04-06T02:25:25.793Z,18.63
2019-04-06T02:27:53.921Z,17.30
2019-04-06T02:30:29.458Z,18.73
2019-04-06T02:33:15.026Z,18.17
2019-04-06T02:35:48.730Z,18.70
2019-04-06T02:38:35.539Z,18.37
2019-04-06T02:41:22.103Z,18.73
2019-04-06T02:43:50.507Z,18.57
2019-04-06T02:46:18.429Z,19.33
2019-04-06T02:48:46.466Z,17.90
2019-04-06T02:51:14.269Z,16.57
2019-04-06T02:53:42.372Z,15.93
2019-04-06T02:56:10.327Z,16.20
2019-04-06T02:58:38.640Z,16.60
2019-04-06T03:01:06.808Z,14.27
2019-04-06T03:03:34.653Z,15.17
2019-04-06T03:06:02.794Z,17.20
2019-04-06T03:08:30.723Z,19.43
2019-04-06T03:10:58.772Z,20.47
2019-04-06T03:13:26.795Z,19.37
2019-04-06T03:15:54.531Z,19.27
2019-04-06T03:18:22.507Z,19.20
2019-04-06T03:20:50.775Z,20.30
2019-04-06T03:23:18.941Z,20.17
2019-04-06T03:25:46.904Z,19.50
2019-04-06T03:28:14.897Z,20.23
2019-04-06T03:30:43.913Z,19.20
2019-04-06T03:33:12.208Z,20.97
2019-04-06T03:35:46.042Z,18.53
2019-04-06T03:38:09.949Z,16.30
2019-04-06T03:40:37.781Z,16.90
2019-04-06T03:43:05.861Z,17.10
2019-04-06T03:45:33.809Z,18.63
2019-04-06T03:48:01.807Z,17.57
2019-04-06T03:50:29.544Z,18.47
2019-04-06T03:52:57.346Z,19.03
2019-04-06T03:55:25.449Z,17.60
2019-04-06T03:57:53.383Z,17.37
2019-04-06T04:00:21.249Z,17.43
2019-04-06T04:02:49.490Z,15.63
2019-04-06T04:05:17.508Z,15.13
2019-04-06T04:07:45.608Z,14.40
2019-04-06T04:10:27.732Z,14.40
2019-04-06T04:12:55.804Z,14.50
2019-04-06T04:15:23.797Z,15.53
2019-04-06T04:17:51.881Z,15.53
2019-04-06T04:20:19.861Z,16.07
2019-04-06T04:22:47.953Z,14.77
2019-04-06T04:25:16.046Z,14.17
2019-04-06T04:27:44.084Z,14.40
2019-04-06T04:30:15.018Z,15.00
2019-04-06T04:32:42.188Z,15.37
2019-04-06T04:35:11.431Z,15.93
2019-04-06T04:37:39.649Z,15.23
2019-04-06T04:40:07.927Z,16.13
2019-04-06T04:42:35.993Z,16.60
2019-04-06T04:45:04.515Z,16.30
2019-04-06T04:47:32.720Z,15.63
2019-04-06T04:50:01.093Z,16.40
2019-04-06T04:52:29.109Z,17.60
2019-04-06T04:54:57.255Z,16.83
2019-04-06T04:57:25.316Z,18.93
2019-04-06T04:59:53.461Z,18.27
2019-04-06T05:02:21.534Z,18.23
2019-04-06T05:04:49.532Z,18.00
2019-04-06T05:07:17.737Z,18.47
2019-04-06T05:09:45.841Z,18.03
2019-04-06T05:12:13.835Z,17.63
2019-04-06T05:15:05.668Z,18.27
2019-04-06T05:17:33.796Z,17.43
2019-04-06T05:20:01.876Z,16.03
2019-04-06T05:22:29.945Z,15.17
2019-04-06T05:24:58.066Z,14.57
2019-04-06T05:27:26.043Z,14.10
2019-04-06T05:29:53.918Z,14.53
2019-04-06T05:32:21.691Z,15.57
2019-04-06T05:34:49.839Z,16.27
2019-04-06T05:37:17.830Z,16.10
2019-04-06T05:39:45.690Z,16.37
2019-04-06T05:42:13.776Z,17.73
2019-04-06T05:44:41.857Z,18.93
2019-04-06T05:47:09.911Z,19.53
2019-04-06T05:49:38.088Z,20.90
2019-04-06T05:52:05.954Z,20.97
2019-04-06T05:54:35.481Z,19.83
2019-04-06T05:57:03.503Z,18.97
2019-04-06T05:59:31.312Z,21.03
2019-04-06T06:01:59.548Z,20.83
2019-04-06T06:04:27.546Z,20.40
2019-04-06T06:06:55.335Z,19.87
2019-04-06T06:09:23.466Z,18.97
2019-04-06T06:11:51.816Z,17.53
2019-04-06T06:14:19.934Z,17.33
2019-04-06T06:16:48.004Z,16.53
2019-04-06T06:19:16.066Z,13.80
2019-04-06T06:21:43.988Z,15.07
2019-04-06T06:24:11.993Z,15.03
2019-04-06T06:26:40.123Z,15.83
2019-04-06T06:29:08.541Z,16.10
2019-04-06T06:31:36.632Z,15.40
2019-04-06T06:34:04.977Z,13.33
2019-04-06T06:36:32.849Z,13.83
2019-04-06T06:39:01.011Z,13.47
2019-04-06T06:41:29.313Z,13.20
2019-04-06T06:43:57.352Z,14.13
2019-04-06T06:46:25.469Z,13.27
2019-04-06T06:48:53.223Z,14.27
2019-04-06T06:51:21.742Z,13.27
2019-04-06T06:53:50.984Z,14.50
2019-04-06T06:56:19.176Z,13.67
2019-04-06T06:58:47.196Z,13.27
2019-04-06T07:01:15.315Z,12.70
2019-04-06T07:03:43.274Z,12.47
2019-04-06T07:06:11.207Z,12.33
2019-04-06T07:08:39.654Z,12.40
2019-04-06T07:11:07.723Z,11.80
2019-04-06T07:13:35.788Z,12.20
2019-04-06T07:16:03.749Z,12.13
2019-04-06T07:18:31.872Z,12.50
2019-04-06T07:21:00.464Z,11.10
2019-04-06T07:23:28.280Z,12.53
2019-04-06T07:25:59.064Z,10.77
2019-04-06T07:28:37.193Z,11.80
2019-04-06T07:30:56.865Z,11.53
2019-04-06T07:33:24.865Z,10.97
2019-04-06T07:35:52.969Z,11.70
2019-04-06T07:38:21.057Z,11.97
2019-04-06T07:40:49.034Z,10.53
2019-04-06T07:43:16.883Z,11.13
2019-04-06T07:45:44.859Z,11.73
2019-04-06T07:48:12.815Z,11.73
2019-04-06T07:50:40.942Z,10.93
2019-04-06T07:53:08.957Z,10.93
2019-04-06T07:55:37.066Z,9.60
2019-04-06T07:58:05.142Z,8.70
2019-04-06T08:00:33.141Z,9.30
2019-04-06T08:03:01.218Z,9.40
2019-04-06T08:05:29.452Z,8.70
2019-04-06T08:07:57.603Z,10.07
2019-04-06T08:10:25.792Z,8.63
2019-04-06T08:12:53.498Z,9.13
2019-04-06T08:15:21.588Z,8.80
2019-04-06T08:17:49.613Z,8.17
2019-04-06T08:20:17.494Z,7.43
2019-04-06T08:22:45.626Z,7.80
2019-04-06T08:25:13.607Z,7.67
2019-04-06T08:27:41.597Z,7.30
2019-04-06T08:30:10.205Z,8.00
2019-04-06T08:32:38.217Z,7.50
2019-04-06T08:35:06.935Z,7.33
2019-04-06T08:37:34.960Z,6.20
2019-04-06T08:40:03.629Z,7.17
2019-04-06T08:42:31.913Z,6.57
2019-04-06T08:45:00.071Z,6.80
2019-04-06T08:47:28.040Z,7.23
2019-04-06T08:49:56.357Z,6.50
2019-04-06T08:52:24.713Z,6.33
2019-04-06T08:54:52.763Z,6.27
2019-04-06T08:57:22.792Z,6.47
2019-04-06T08:59:50.603Z,6.90
2019-04-06T09:02:18.843Z,5.97
2019-04-06T09:04:46.732Z,6.97
2019-04-06T09:07:14.746Z,6.83
2019-04-06T09:09:43.480Z,6.67
2019-04-06T09:12:11.472Z,6.73
2019-04-06T09:14:39.480Z,6.27
2019-04-06T09:17:07.612Z,6.53
2019-04-06T09:19:35.689Z,7.10
2019-04-06T09:22:03.844Z,7.57
2019-04-06T09:24:31.813Z,6.90
2019-04-06T09:27:00.384Z,7.07
2019-04-06T09:29:28.272Z,7.10
2019-04-06T09:31:56.314Z,5.80
2019-04-06T09:34:24.357Z,5.57
2019-04-06T09:36:52.764Z,5.83
2019-04-06T09:39:20.896Z,6.20
2019-04-06T09:41:49.275Z,6.33
2019-04-06T09:44:27.661Z,6.13
2019-04-06T09:47:05.290Z,5.57
2019-04-06T09:49:45.701Z,5.87
2019-04-06T09:52:38.129Z,4.83
2019-04-06T09:55:32.030Z,5.03
2019-04-06T09:58:22.637Z,5.20
2019-04-06T10:01:19.147Z,5.53
2019-04-06T10:04:06.006Z,6.10
2019-04-06T10:06:49.816Z,6.03
2019-04-06T10:09:52.109Z,5.00
2019-04-06T10:12:45.884Z,6.53
2019-04-06T10:15:36.401Z,6.07
2019-04-06T10:18:29.345Z,5.53
2019-04-06T10:21:16.976Z,5.70
2019-04-06T10:23:54.861Z,6.13
2019-04-06T10:26:45.325Z,6.17
2019-04-06T10:29:47.963Z,6.27
2019-04-06T10:32:33.893Z,6.23
2019-04-06T10:35:10.063Z,4.53
2019-04-06T10:37:46.892Z,5.43
2019-04-06T10:40:28.673Z,4.87
2019-04-06T10:43:21.836Z,9.77
2019-04-06T10:46:02.903Z,8.67
2019-04-06T10:48:49.437Z,4.80
2019-04-06T10:51:33.373Z,3.80
2019-04-06T10:54:10.266Z,4.20
2019-04-06T10:57:11.147Z,3.20
2019-04-06T11:00:04.538Z,2.50
2019-04-06T11:02:57.992Z,3.23
2019-04-06T11:05:43.530Z,3.20
2019-04-06T11:08:30.991Z,2.80
2019-04-06T11:11:27.525Z,2.90
2019-04-06T11:14:24.122Z,2.97
2019-04-06T11:17:05.597Z,3.00
2019-04-06T11:19:48.634Z,2.90
2019-04-06T11:22:24.880Z,3.10
2019-04-06T11:25:24.571Z,3.40
2019-04-06T11:28:10.181Z,3.43
2019-04-06T11:31:09.397Z,3.20
2019-04-06T11:33:47.725Z,3.40
2019-04-06T11:36:30.989Z,3.27
2019-04-06T11:39:17.479Z,2.63
2019-04-06T11:42:14.184Z,2.53
2019-04-06T11:45:00.319Z,2.70
2019-04-06T11:47:53.677Z,2.97
2019-04-06T11:50:47.089Z,2.53
2019-04-06T11:53:43.603Z,3.03
2019-04-06T11:56:24.058Z,2.83
2019-04-06T11:59:03.131Z,2.93
2019-04-06T12:01:50.878Z,3.20
2019-04-06T12:04:47.593Z,2.73
2019-04-06T12:07:21.844Z,2.80
2019-04-06T12:10:06.915Z,2.60
2019-04-06T12:12:57.631Z,2.60
2019-04-06T12:15:54.598Z,2.90
2019-04-06T12:18:30.096Z,2.77
2019-04-06T12:21:23.525Z,2.70
2019-04-06T12:24:09.678Z,2.87
2019-04-06T12:26:58.637Z,3.20
2019-04-06T12:29:45.219Z,3.10
2019-04-06T12:32:36.438Z,3.43
2019-04-06T12:35:29.116Z,3.20
2019-04-06T12:38:24.758Z,3.50
2019-04-06T12:41:10.087Z,3.43
2019-04-06T12:44:00.573Z,3.60
2019-04-06T12:46:54.049Z,3.40
2019-04-06T12:49:41.635Z,3.67
2019-04-06T12:52:32.625Z,3.47
2019-04-06T12:55:09.364Z,3.47
2019-04-06T12:57:56.458Z,3.57
2019-04-06T13:00:52.612Z,3.43
2019-04-06T13:03:37.022Z,3.53
2019-04-06T13:06:29.096Z,3.97
2019-04-06T13:09:05.464Z,4.10
2019-04-06T13:11:44.526Z,3.93
2019-04-06T13:14:32.149Z,3.60
2019-04-06T13:17:22.558Z,3.50
2019-04-06T13:20:10.042Z,4.30
2019-04-06T13:22:57.811Z,3.80
2019-04-06T13:25:40.603Z,3.47
2019-04-06T13:28:34.465Z,3.80
2019-04-06T13:31:14.011Z,3.53
2019-04-06T13:34:01.544Z,3.60
2019-04-06T13:36:49.153Z,4.00
2019-04-06T13:39:27.693Z,3.90
2019-04-06T13:42:32.934Z,4.43
2019-04-06T13:45:20.489Z,4.10
2019-04-06T13:48:14.178Z,4.43
2019-04-06T13:50:50.476Z,4.00
2019-04-06T13:53:39.267Z,4.40
2019-04-06T13:56:26.635Z,5.50
2019-04-06T13:59:07.512Z,5.87
2019-04-06T14:02:04.263Z,12.40
2019-04-06T14:05:00.553Z,18.37
2019-04-06T14:07:50.907Z,11.73
2019-04-06T14:10:37.111Z,7.77
2019-04-06T14:13:23.364Z,15.20
2019-04-06T14:16:13.693Z,5.40
2019-04-06T14:19:01.159Z,5.30
2019-04-06T14:21:39.352Z,5.67
2019-04-06T14:24:21.705Z,5.10
2019-04-06T14:27:06.765Z,5.57
2019-04-06T14:29:49.640Z,5.47
2019-04-06T14:32:36.925Z,5.80
2019-04-06T14:35:30.524Z,5.60
2019-04-06T14:38:20.688Z,16.23
2019-04-06T14:41:20.813Z,32.30
2019-04-06T14:43:57.035Z,13.97
2019-04-06T14:46:38.585Z,17.83
2019-04-06T14:49:30.790Z,15.83
2019-04-06T14:52:13.276Z,6.70
2019-04-06T14:55:01.046Z,6.30
2019-04-06T14:57:47.521Z,11.53
2019-04-06T15:00:37.783Z,21.17
2019-04-06T15:03:43.415Z,35.77
2019-04-06T15:06:29.266Z,40.63
2019-04-06T15:09:26.747Z,15.30
2019-04-06T15:12:14.848Z,51.33
2019-04-06T15:15:02.816Z,15.60
2019-04-06T15:17:56.850Z,31.73
2019-04-06T15:20:42.078Z,7.03
2019-04-06T15:23:30.024Z,6.20
2019-04-06T15:26:19.353Z,6.40
2019-04-06T15:29:06.888Z,5.80
2019-04-06T15:31:53.451Z,6.17
2019-04-06T15:34:30.867Z,6.13
2019-04-06T15:37:07.763Z,6.70
2019-04-06T15:39:54.099Z,6.40
2019-04-06T15:42:44.943Z,6.67
2019-04-06T15:45:32.660Z,6.67
2019-04-06T15:48:23.009Z,6.40
2019-04-06T15:51:10.660Z,6.57
2019-04-06T15:54:16.179Z,6.30
2019-04-06T15:57:06.594Z,6.43
2019-04-06T15:59:59.555Z,6.60
2019-04-06T16:02:37.482Z,6.57
2019-04-06T16:05:28.192Z,5.70
2019-04-06T16:08:15.904Z,6.57
2019-04-06T16:11:02.465Z,6.10
2019-04-06T16:13:44.840Z,6.83
2019-04-06T16:16:41.369Z,6.60
2019-04-06T16:19:29.157Z,6.70
2019-04-06T16:22:07.432Z,6.63
2019-04-06T16:24:46.263Z,7.03
2019-04-06T16:27:40.316Z,6.43
2019-04-06T16:30:26.734Z,6.57
2019-04-06T16:33:09.528Z,6.30
2019-04-06T16:36:06.457Z,6.50
2019-04-06T16:39:00.239Z,6.10
2019-04-06T16:42:05.740Z,7.30
2019-04-06T16:44:41.085Z,7.03
2019-04-06T16:47:27.234Z,6.37
2019-04-06T16:50:13.431Z,6.90
2019-04-06T16:52:58.613Z,6.67
2019-04-06T16:55:45.998Z,6.80
2019-04-06T16:58:36.768Z,6.87
2019-04-06T17:01:22.840Z,6.87
2019-04-06T17:04:16.754Z,6.57
2019-04-06T17:07:03.174Z,7.20
2019-04-06T17:10:03.216Z,7.03
2019-04-06T17:12:44.524Z,6.73
2019-04-06T17:15:26.161Z,6.60
2019-04-06T17:18:32.702Z,6.20
2019-04-06T17:21:26.493Z,6.43
2019-04-06T17:24:14.188Z,6.17
2019-04-06T17:26:52.735Z,7.30
2019-04-06T17:29:30.145Z,8.77
2019-04-06T17:32:33.917Z,12.43
2019-04-06T17:35:10.507Z,7.83
2019-04-06T17:37:57.881Z,7.87
2019-04-06T17:40:38.961Z,10.53
2019-04-06T17:43:25.161Z,12.07
2019-04-06T17:46:24.605Z,12.07
2019-04-06T17:49:11.423Z,10.00
2019-04-06T17:52:17.240Z,8.73
2019-04-06T17:55:16.823Z,7.57
2019-04-06T17:58:11.946Z,7.70
2019-04-06T18:01:17.383Z,8.13
2019-04-06T18:03:53.979Z,8.70
2019-04-06T18:06:56.993Z,8.07
2019-04-06T18:09:34.353Z,9.70
2019-04-06T18:12:32.488Z,11.37
2019-04-06T18:15:00.917Z,13.33
2019-04-06T18:17:29.116Z,43.17
2019-04-06T18:19:57.475Z,21.40
2019-04-06T18:22:25.287Z,11.57
2019-04-06T18:24:54.059Z,8.37
2019-04-06T18:27:21.900Z,8.33
2019-04-06T18:29:49.941Z,8.23
2019-04-06T18:32:34.862Z,7.83
2019-04-06T18:35:02.927Z,8.13
2019-04-06T18:37:40.156Z,8.87
2019-04-06T18:40:17.185Z,8.13
2019-04-06T18:42:45.330Z,8.63
2019-04-06T18:45:13.693Z,8.87
2019-04-06T18:47:41.632Z,8.00
2019-04-06T18:50:10.325Z,8.17
2019-04-06T18:52:39.388Z,10.43
2019-04-06T18:55:07.509Z,8.37
2019-04-06T18:57:35.843Z,8.10
2019-04-06T19:00:06.747Z,8.07
2019-04-06T19:02:36.005Z,7.40
2019-04-06T19:05:04.938Z,8.30
2019-04-06T19:07:32.656Z,8.07
2019-04-06T19:10:00.647Z,7.67
2019-04-06T19:12:28.686Z,8.13
2019-04-06T19:14:56.794Z,8.00
2019-04-06T19:17:24.796Z,8.33
2019-04-06T19:19:52.831Z,7.70
2019-04-06T19:22:21.687Z,8.40
2019-04-06T19:24:50.021Z,8.80
2019-04-06T19:27:18.298Z,8.70
2019-04-06T19:29:46.445Z,8.77
2019-04-06T19:32:14.808Z,9.30
2019-04-06T19:34:42.928Z,9.10
2019-04-06T19:37:11.189Z,9.17
2019-04-06T19:39:39.257Z,9.30
2019-04-06T19:42:07.416Z,9.70
2019-04-06T19:44:35.943Z,9.73
2019-04-06T19:47:04.241Z,9.63
2019-04-06T19:49:32.116Z,9.43
2019-04-06T19:52:00.416Z,9.60
2019-04-06T19:54:28.598Z,9.33
2019-04-06T19:56:56.963Z,12.03
2019-04-06T19:59:25.166Z,11.67
2019-04-06T20:01:53.664Z,10.30
2019-04-06T20:04:22.031Z,9.80
2019-04-06T20:06:50.528Z,9.70
2019-04-06T20:09:18.649Z,9.60
2019-04-06T20:11:46.895Z,9.20
2019-04-06T20:14:15.034Z,9.07
2019-04-06T20:16:43.115Z,9.63
2019-04-06T20:19:11.310Z,9.10
2019-04-06T20:21:39.768Z,9.70
2019-04-06T20:24:10.593Z,9.00
2019-04-06T20:26:40.069Z,9.10
2019-04-06T20:29:08.299Z,8.80
2019-04-06T20:31:36.441Z,9.50
2019-04-06T20:34:04.980Z,9.13
2019-04-06T20:36:33.206Z,9.47
2019-04-06T20:39:01.138Z,8.83
2019-04-06T20:41:30.934Z,8.97
2019-04-06T20:43:58.839Z,8.70
2019-04-06T20:46:27.111Z,9.33
2019-04-06T20:48:55.462Z,10.40
2019-04-06T20:51:23.612Z,9.97
2019-04-06T20:53:52.055Z,10.50
2019-04-06T20:56:20.755Z,10.63
2019-04-06T20:58:49.141Z,10.40
2019-04-06T21:01:17.397Z,10.53
2019-04-06T21:03:45.429Z,10.37
2019-04-06T21:06:14.329Z,10.03
2019-04-06T21:08:42.251Z,10.93
2019-04-06T21:11:10.424Z,10.20
2019-04-06T21:13:39.037Z,10.10
2019-04-06T21:16:07.252Z,9.87
2019-04-06T21:18:35.247Z,9.20
2019-04-06T21:21:03.687Z,9.43
2019-04-06T21:23:31.922Z,9.50
2019-04-06T21:26:00.788Z,9.47
2019-04-06T21:28:28.952Z,8.40
2019-04-06T21:30:57.729Z,8.27
2019-04-06T21:33:25.724Z,9.07
2019-04-06T21:35:53.960Z,8.37
2019-04-06T21:38:22.052Z,8.27
2019-04-06T21:40:50.091Z,8.10
2019-04-06T21:43:17.875Z,8.67
2019-04-06T21:45:45.668Z,8.13
2019-04-06T21:48:13.508Z,8.23
2019-04-06T21:50:42.052Z,8.20
2019-04-06T21:53:10.541Z,8.30
2019-04-06T21:55:39.035Z,8.53
2019-04-06T21:58:07.348Z,8.37
2019-04-06T22:00:40.051Z,8.43
2019-04-06T22:03:10.061Z,8.30
2019-04-06T22:05:38.206Z,8.50
2019-04-06T22:08:06.140Z,10.37
2019-04-06T22:10:34.337Z,11.47
2019-04-06T22:13:02.654Z,10.90
2019-04-06T22:15:30.769Z,9.57
2019-04-06T22:17:58.620Z,8.70
2019-04-06T22:20:26.705Z,9.57
2019-04-06T22:22:54.675Z,9.20
2019-04-06T22:25:22.669Z,10.17
2019-04-06T22:27:50.890Z,9.83
2019-04-06T22:30:19.807Z,8.83
2019-04-06T22:32:48.221Z,9.40
2019-04-06T22:35:17.333Z,9.57
2019-04-06T22:37:45.531Z,10.77
2019-04-06T22:40:14.229Z,9.40
2019-04-06T22:42:42.300Z,9.10
2019-04-06T22:45:12.145Z,9.47
2019-04-06T22:47:40.082Z,9.37
2019-04-06T22:50:08.337Z,9.07
2019-04-06T22:52:36.741Z,9.20
2019-04-06T22:55:05.070Z,9.50
2019-04-06T22:57:33.100Z,9.23
2019-04-06T23:00:01.058Z,10.27
2019-04-06T23:02:36.227Z,10.20
2019-04-06T23:05:16.205Z,9.10
2019-04-06T23:07:44.201Z,9.90
2019-04-06T23:10:12.173Z,10.63
2019-04-06T23:12:40.398Z,9.47
2019-04-06T23:15:08.501Z,9.87
2019-04-06T23:17:38.611Z,10.77
2019-04-06T23:20:06.789Z,10.27
2019-04-06T23:22:34.582Z,10.70
2019-04-06T23:25:02.804Z,10.70
2019-04-06T23:27:30.954Z,10.20
2019-04-06T23:29:59.000Z,10.77
2019-04-06T23:32:26.934Z,11.23
2019-04-06T23:35:01.006Z,11.47
2019-04-06T23:37:24.994Z,10.37
2019-04-06T23:39:52.863Z,11.03
2019-04-06T23:42:20.860Z,11.23
2019-04-06T23:44:48.885Z,10.93
2019-04-06T23:47:16.604Z,10.57
2019-04-06T23:49:44.912Z,10.63
2019-04-06T23:52:13.638Z,10.67
2019-04-06T23:54:41.857Z,10.70
2019-04-06T23:57:10.167Z,10.97
2019-04-06T23:59:38.441Z,10.77
